createdAt,value
2023-05-02T00:02:00.704Z,1.90
2023-05-02T00:04:27.785Z,2.04
2023-05-02T00:06:54.703Z,2.03
2023-05-02T00:09:21.682Z,1.97
2023-05-02T00:11:48.457Z,2.02
2023-05-02T00:14:15.130Z,2.15
2023-05-02T00:16:41.875Z,2.03
2023-05-02T00:19:08.510Z,2.01
2023-05-02T00:21:35.249Z,2.10
2023-05-02T00:24:01.944Z,2.15
2023-05-02T00:26:29.047Z,2.05
2023-05-02T00:28:55.686Z,2.03
2023-05-02T00:31:22.335Z,2.20
2023-05-02T00:33:49.092Z,2.05
2023-05-02T00:36:16.883Z,2.02
2023-05-02T00:38:43.651Z,2.14
2023-05-02T00:41:10.852Z,2.13
2023-05-02T00:43:39.854Z,1.99
2023-05-02T00:46:08.038Z,2.01
2023-05-02T00:48:35.474Z,2.16
2023-05-02T00:51:09.151Z,2.00
2023-05-02T00:53:36.120Z,1.96
2023-05-02T00:56:03.534Z,2.12
2023-05-02T00:58:30.823Z,2.04
2023-05-02T01:01:31.519Z,1.87
2023-05-02T01:04:02.654Z,1.94
2023-05-02T01:06:41.812Z,1.91
2023-05-02T01:09:32.705Z,1.76
2023-05-02T01:12:05.346Z,1.77
2023-05-02T01:14:41.172Z,1.91
2023-05-02T01:17:11.640Z,1.72
2023-05-02T01:19:57.382Z,1.69
2023-05-02T01:22:28.052Z,1.89
2023-05-02T01:24:54.665Z,1.80
2023-05-02T01:27:52.124Z,1.68
2023-05-02T01:30:21.531Z,1.69
2023-05-02T01:32:51.020Z,1.88
2023-05-02T01:35:20.193Z,1.80
2023-05-02T01:37:49.023Z,1.74
2023-05-02T01:40:22.593Z,1.91
2023-05-02T01:42:52.255Z,1.82
2023-05-02T01:45:21.264Z,1.77
2023-05-02T01:47:49.256Z,1.86
2023-05-02T01:50:23.333Z,1.88
2023-05-02T01:52:53.244Z,1.78
2023-05-02T01:55:20.799Z,1.77
2023-05-02T01:57:50.788Z,1.95
2023-05-02T02:00:19.685Z,1.82
2023-05-02T02:02:49.748Z,1.78
2023-05-02T02:05:19.262Z,1.82
2023-05-02T02:07:46.407Z,1.91
2023-05-02T02:10:13.361Z,1.79
2023-05-02T02:12:42.884Z,1.76
2023-05-02T02:15:18.272Z,1.88
2023-05-02T02:17:59.158Z,1.79
2023-05-02T02:20:28.685Z,1.71
2023-05-02T02:22:57.849Z,1.79
2023-05-02T02:25:26.986Z,1.92
2023-05-02T02:27:54.666Z,1.80
2023-05-02T02:30:21.396Z,1.72
2023-05-02T02:32:48.156Z,1.84
2023-05-02T02:35:15.380Z,1.82
2023-05-02T02:37:59.422Z,1.76
2023-05-02T02:40:31.687Z,1.73
2023-05-02T02:43:01.623Z,1.81
2023-05-02T02:45:43.941Z,1.70
2023-05-02T02:48:35.785Z,1.70
2023-05-02T02:51:02.364Z,1.83
2023-05-02T02:53:51.130Z,1.66
2023-05-02T02:56:26.672Z,1.62
2023-05-02T02:59:00.541Z,1.74
2023-05-02T03:01:30.876Z,1.71
2023-05-02T03:03:58.155Z,1.65
2023-05-02T03:06:27.402Z,1.64
2023-05-02T03:08:54.138Z,1.78
2023-05-02T03:11:20.733Z,1.64
2023-05-02T03:13:47.759Z,1.56
2023-05-02T03:16:27.349Z,1.61
2023-05-02T03:18:54.091Z,1.71
2023-05-02T03:21:20.794Z,1.58
2023-05-02T03:23:47.429Z,1.54
2023-05-02T03:26:14.560Z,1.55
2023-05-02T03:28:41.214Z,1.67
2023-05-02T03:31:09.903Z,1.55
2023-05-02T03:33:36.651Z,1.50
2023-05-02T03:36:03.481Z,1.60
2023-05-02T03:38:30.817Z,1.61
2023-05-02T03:40:58.464Z,1.56
2023-05-02T03:43:25.284Z,1.49
2023-05-02T03:45:51.930Z,1.52
2023-05-02T03:48:18.760Z,1.67
2023-05-02T03:50:45.469Z,1.62
2023-05-02T03:53:12.126Z,1.55
2023-05-02T03:55:42.540Z,1.55
2023-05-02T03:58:10.815Z,1.70
2023-05-02T04:00:38.602Z,1.59
2023-05-02T04:03:05.690Z,1.54
2023-05-02T04:05:32.565Z,1.61
2023-05-02T04:07:59.164Z,1.55
2023-05-02T04:10:25.831Z,1.47
2023-05-02T04:12:52.457Z,1.41
2023-05-02T04:15:19.185Z,1.44
2023-05-02T04:17:46.790Z,1.48
2023-05-02T04:20:13.823Z,1.37
2023-05-02T04:22:41.195Z,1.31
2023-05-02T04:25:08.269Z,1.24
2023-05-02T04:27:35.187Z,1.34
2023-05-02T04:30:02.043Z,1.31
2023-05-02T04:32:29.249Z,1.22
2023-05-02T04:34:55.980Z,1.21
2023-05-02T04:37:22.744Z,1.34
2023-05-02T04:39:49.423Z,1.29
2023-05-02T04:42:16.132Z,1.15
2023-05-02T04:44:42.736Z,1.27
2023-05-02T04:47:09.415Z,1.29
2023-05-02T04:49:36.587Z,1.27
2023-05-02T04:52:03.218Z,1.20
2023-05-02T04:54:30.206Z,1.34
2023-05-02T04:56:57.302Z,1.35
2023-05-02T04:59:23.885Z,1.35
2023-05-02T05:01:50.864Z,1.35
2023-05-02T05:04:20.087Z,1.49
2023-05-02T05:06:48.413Z,1.41
2023-05-02T05:09:15.909Z,1.41
2023-05-02T05:11:46.323Z,1.39
2023-05-02T05:14:13.094Z,1.51
2023-05-02T05:16:40.271Z,1.54
2023-05-02T05:19:07.037Z,1.51
2023-05-02T05:21:34.150Z,1.61
2023-05-02T05:24:00.895Z,1.70
2023-05-02T05:26:27.856Z,1.65
2023-05-02T05:28:54.439Z,1.64
2023-05-02T05:31:21.178Z,1.77
2023-05-02T05:33:47.871Z,1.77
2023-05-02T05:36:15.117Z,1.71
2023-05-02T05:38:42.004Z,1.77
2023-05-02T05:41:09.056Z,1.92
2023-05-02T05:43:37.751Z,1.80
2023-05-02T05:46:04.823Z,1.82
2023-05-02T05:48:31.557Z,1.95
2023-05-02T05:50:58.242Z,1.93
2023-05-02T05:53:24.944Z,1.86
2023-05-02T05:55:51.561Z,1.92
2023-05-02T05:58:18.345Z,2.03
2023-05-02T06:00:44.961Z,1.99
2023-05-02T06:03:12.366Z,2.05
2023-05-02T06:05:39.029Z,2.22
2023-05-02T06:08:05.658Z,2.19
2023-05-02T06:10:32.635Z,2.12
2023-05-02T06:12:59.452Z,2.22
2023-05-02T06:15:26.210Z,2.40
2023-05-02T06:17:52.948Z,2.31
2023-05-02T06:20:19.612Z,2.33
2023-05-02T06:22:46.256Z,2.43
2023-05-02T06:25:13.040Z,2.45
2023-05-02T06:27:39.768Z,2.47
2023-05-02T06:30:07.192Z,2.59
2023-05-02T06:32:33.928Z,2.73
2023-05-02T06:35:01.344Z,2.69
2023-05-02T06:37:27.969Z,2.66
2023-05-02T06:39:54.609Z,2.87
2023-05-02T06:42:21.244Z,2.98
2023-05-02T06:44:47.917Z,3.01
2023-05-02T06:47:14.982Z,3.08
2023-05-02T06:49:41.921Z,3.22
2023-05-02T06:52:08.691Z,3.31
2023-05-02T06:54:35.661Z,3.27
2023-05-02T06:57:02.713Z,3.36
2023-05-02T06:59:29.692Z,3.36
2023-05-02T07:01:57.362Z,3.34
2023-05-02T07:04:24.016Z,3.36
2023-05-02T07:06:51.153Z,3.52
2023-05-02T07:09:17.857Z,3.46
2023-05-02T07:11:44.452Z,3.50
2023-05-02T07:14:11.397Z,3.65
2023-05-02T07:16:38.118Z,3.69
2023-05-02T07:19:07.086Z,3.71
2023-05-02T07:21:33.784Z,3.72
2023-05-02T07:24:01.296Z,3.84
2023-05-02T07:26:28.528Z,3.91
2023-05-02T07:28:55.151Z,4.02
2023-05-02T07:31:22.077Z,4.21
2023-05-02T07:33:48.747Z,4.23
2023-05-02T07:36:15.804Z,4.16
2023-05-02T07:38:42.391Z,4.28
2023-05-02T07:41:09.318Z,4.51
2023-05-02T07:43:36.090Z,4.45
2023-05-02T07:46:06.816Z,4.43
2023-05-02T07:48:34.135Z,4.54
2023-05-02T07:51:08.112Z,4.70
2023-05-02T07:53:34.782Z,4.69
2023-05-02T07:56:03.394Z,4.62
2023-05-02T07:58:30.118Z,4.56
2023-05-02T08:00:57.737Z,4.79
2023-05-02T08:03:25.705Z,4.76
2023-05-02T08:05:52.513Z,4.68
2023-05-02T08:08:19.252Z,4.73
2023-05-02T08:10:46.294Z,4.93
2023-05-02T08:13:13.295Z,4.85
2023-05-02T08:15:39.951Z,4.88
2023-05-02T08:18:07.474Z,5.08
2023-05-02T08:20:34.183Z,5.12
2023-05-02T08:23:00.873Z,5.06
2023-05-02T08:25:27.620Z,5.21
2023-05-02T08:27:54.279Z,5.22
2023-05-02T08:30:20.897Z,5.25
2023-05-02T08:32:47.618Z,5.39
2023-05-02T08:35:14.419Z,5.36
2023-05-02T08:37:41.252Z,5.34
2023-05-02T08:40:12.272Z,5.57
2023-05-02T08:42:42.769Z,5.57
2023-05-02T08:45:14.054Z,5.61
2023-05-02T08:47:42.576Z,5.74
2023-05-02T08:50:10.915Z,5.66
2023-05-02T08:52:38.583Z,5.74
2023-05-02T08:55:07.536Z,5.84
2023-05-02T08:57:34.405Z,5.92
2023-05-02T09:00:01.355Z,5.94
2023-05-02T09:02:31.329Z,5.96
2023-05-02T09:05:06.570Z,5.90
2023-05-02T09:07:47.806Z,5.86
2023-05-02T09:10:15.948Z,6.03
2023-05-02T09:12:43.147Z,6.07
2023-05-02T09:15:14.720Z,6.03
2023-05-02T09:17:46.331Z,6.29
2023-05-02T09:20:14.738Z,6.14
2023-05-02T09:22:53.452Z,6.16
2023-05-02T09:25:21.275Z,6.27
2023-05-02T09:27:55.888Z,6.32
2023-05-02T09:30:23.760Z,6.30
2023-05-02T09:32:51.990Z,6.34
2023-05-02T09:35:23.834Z,6.23
2023-05-02T09:37:54.894Z,6.30
2023-05-02T09:40:22.109Z,6.63
2023-05-02T09:42:49.033Z,6.51
2023-05-02T09:45:23.940Z,6.47
2023-05-02T09:47:51.556Z,6.43
2023-05-02T09:50:38.730Z,6.65
2023-05-02T09:53:07.340Z,6.92
2023-05-02T09:55:34.470Z,6.77
2023-05-02T09:58:01.544Z,6.76
2023-05-02T10:00:44.861Z,6.80
2023-05-02T10:03:17.943Z,6.77
2023-05-02T10:05:47.904Z,7.14
2023-05-02T10:08:18.655Z,7.08
2023-05-02T10:11:07.799Z,7.43
2023-05-02T10:13:37.715Z,7.42
2023-05-02T10:16:06.912Z,7.40
2023-05-02T10:19:12.863Z,7.43
2023-05-02T10:21:43.185Z,7.49
2023-05-02T10:24:10.429Z,7.40
2023-05-02T10:26:37.454Z,7.05
2023-05-02T10:29:04.340Z,7.27
2023-05-02T10:31:35.150Z,7.51
2023-05-02T10:34:03.381Z,7.56
2023-05-02T10:36:33.506Z,7.68
2023-05-02T10:39:01.452Z,7.43
2023-05-02T10:41:31.509Z,7.49
2023-05-02T10:43:58.838Z,7.71
2023-05-02T10:46:41.841Z,7.75
2023-05-02T10:49:13.609Z,7.96
2023-05-02T10:51:42.093Z,7.73
2023-05-02T10:54:18.245Z,7.50
2023-05-02T10:57:09.731Z,7.42
2023-05-02T10:59:40.854Z,7.45
2023-05-02T11:02:31.260Z,7.75
2023-05-02T11:05:04.573Z,8.06
2023-05-02T11:07:33.775Z,8.36
2023-05-02T11:10:18.463Z,8.32
2023-05-02T11:12:47.914Z,8.12
2023-05-02T11:15:15.835Z,8.43
2023-05-02T11:18:01.904Z,8.21
2023-05-02T11:20:29.338Z,8.11
2023-05-02T11:22:58.950Z,8.04
2023-05-02T11:25:33.835Z,7.82
2023-05-02T11:28:00.904Z,7.97
2023-05-02T11:30:45.399Z,7.81
2023-05-02T11:33:15.889Z,7.91
2023-05-02T11:35:44.414Z,8.00
2023-05-02T11:38:13.721Z,8.04
2023-05-02T11:40:40.755Z,8.13
2023-05-02T11:43:16.641Z,7.96
2023-05-02T11:45:44.167Z,8.12
2023-05-02T11:48:12.966Z,8.09
2023-05-02T11:50:48.754Z,8.33
2023-05-02T11:53:22.633Z,8.55
2023-05-02T11:55:52.087Z,8.40
2023-05-02T11:58:21.560Z,8.56
2023-05-02T12:00:49.295Z,8.39
2023-05-02T12:03:22.872Z,8.58
2023-05-02T12:05:50.510Z,8.81
2023-05-02T12:08:27.612Z,9.16
2023-05-02T12:10:56.836Z,9.30
2023-05-02T12:13:25.606Z,9.39
2023-05-02T12:15:54.164Z,9.64
2023-05-02T12:18:27.172Z,9.58
2023-05-02T12:20:56.063Z,9.57
2023-05-02T12:23:26.488Z,9.72
2023-05-02T12:25:53.324Z,9.44
2023-05-02T12:28:20.901Z,9.40
2023-05-02T12:30:49.701Z,9.60
2023-05-02T12:33:18.327Z,9.88
2023-05-02T12:35:49.244Z,9.79
2023-05-02T12:38:19.008Z,9.51
2023-05-02T12:40:54.557Z,9.57
2023-05-02T12:43:22.148Z,9.68
2023-05-02T12:45:50.011Z,9.49
2023-05-02T12:48:23.009Z,9.43
2023-05-02T12:50:50.713Z,9.15
2023-05-02T12:53:17.333Z,9.33
2023-05-02T12:55:44.430Z,9.71
2023-05-02T12:58:14.959Z,9.78
2023-05-02T13:00:44.217Z,9.79
2023-05-02T13:03:12.483Z,9.74
2023-05-02T13:05:39.409Z,9.93
2023-05-02T13:08:06.623Z,10.28
2023-05-02T13:10:33.417Z,9.99
2023-05-02T13:13:00.407Z,10.21
2023-05-02T13:15:27.314Z,10.10
2023-05-02T13:17:54.098Z,10.34
2023-05-02T13:20:20.964Z,10.46
2023-05-02T13:22:48.827Z,10.49
2023-05-02T13:25:16.153Z,10.71
2023-05-02T13:27:42.885Z,10.78
2023-05-02T13:30:10.305Z,10.64
2023-05-02T13:32:37.511Z,10.54
2023-05-02T13:35:05.611Z,10.18
2023-05-02T13:37:32.535Z,10.19
2023-05-02T13:39:59.290Z,10.23
2023-05-02T13:42:26.056Z,10.35
2023-05-02T13:44:52.695Z,10.18
2023-05-02T13:47:20.403Z,9.93
2023-05-02T13:49:47.056Z,9.94
2023-05-02T13:52:14.863Z,9.76
2023-05-02T13:54:41.521Z,9.79
2023-05-02T13:57:08.158Z,9.69
2023-05-02T13:59:34.828Z,9.40
2023-05-02T14:02:01.622Z,9.47
2023-05-02T14:04:28.558Z,9.27
2023-05-02T14:06:55.316Z,9.32
2023-05-02T14:09:22.209Z,9.28
2023-05-02T14:11:49.185Z,9.08
2023-05-02T14:14:16.191Z,9.42
2023-05-02T14:16:42.799Z,9.77
2023-05-02T14:19:09.437Z,9.92
2023-05-02T14:21:38.539Z,9.76
2023-05-02T14:24:06.549Z,9.49
2023-05-02T14:26:33.548Z,9.62
2023-05-02T14:29:01.901Z,9.47
2023-05-02T14:31:29.569Z,9.52
2023-05-02T14:33:57.607Z,9.28
2023-05-02T14:36:24.186Z,8.91
2023-05-02T14:38:50.958Z,9.08
2023-05-02T14:41:18.500Z,9.04
2023-05-02T14:43:46.229Z,9.08
2023-05-02T14:46:12.856Z,9.21
2023-05-02T14:48:40.468Z,9.09
2023-05-02T14:51:07.329Z,9.24
2023-05-02T14:53:35.062Z,9.27
2023-05-02T14:56:01.731Z,9.29
2023-05-02T14:58:28.597Z,9.83
2023-05-02T15:00:55.317Z,10.03
2023-05-02T15:03:22.155Z,10.18
2023-05-02T15:05:48.933Z,9.79
2023-05-02T15:08:17.025Z,9.62
2023-05-02T15:10:43.612Z,9.57
2023-05-02T15:13:10.708Z,9.51
2023-05-02T15:15:37.501Z,9.83
2023-05-02T15:18:04.615Z,10.16
2023-05-02T15:20:32.484Z,10.47
2023-05-02T15:23:03.291Z,10.43
2023-05-02T15:25:30.755Z,10.08
2023-05-02T15:27:57.398Z,10.08
2023-05-02T15:30:24.340Z,9.91
2023-05-02T15:32:51.067Z,9.88
2023-05-02T15:35:18.839Z,10.13
2023-05-02T15:37:45.734Z,9.78
2023-05-02T15:40:12.783Z,9.73
2023-05-02T15:42:40.112Z,9.88
2023-05-02T15:45:07.266Z,9.66
2023-05-02T15:47:33.969Z,9.76
2023-05-02T15:50:01.169Z,9.70
2023-05-02T15:52:27.994Z,9.59
2023-05-02T15:54:56.117Z,9.79
2023-05-02T15:57:24.294Z,9.80
2023-05-02T15:59:51.975Z,9.95
2023-05-02T16:02:19.209Z,9.87
2023-05-02T16:04:46.540Z,9.68
2023-05-02T16:07:13.281Z,9.78
2023-05-02T16:09:40.180Z,9.69
2023-05-02T16:12:08.738Z,9.70
2023-05-02T16:14:35.598Z,9.82
2023-05-02T16:17:03.321Z,9.84
2023-05-02T16:19:30.703Z,9.89
2023-05-02T16:21:57.398Z,9.77
2023-05-02T16:24:24.262Z,9.53
2023-05-02T16:26:50.944Z,9.57
2023-05-02T16:29:18.582Z,9.44
2023-05-02T16:31:45.224Z,9.41
2023-05-02T16:34:11.994Z,9.49
2023-05-02T16:36:38.637Z,9.28
2023-05-02T16:39:05.320Z,9.36
2023-05-02T16:41:32.017Z,9.14
2023-05-02T16:43:59.758Z,9.13
2023-05-02T16:46:26.866Z,9.25
2023-05-02T16:48:53.618Z,9.13
2023-05-02T16:51:20.241Z,9.27
2023-05-02T16:53:46.969Z,9.14
2023-05-02T16:56:13.575Z,9.15
2023-05-02T16:58:41.228Z,9.22
2023-05-02T17:01:08.521Z,9.10
2023-05-02T17:03:35.650Z,9.24
2023-05-02T17:06:02.957Z,9.14
2023-05-02T17:08:30.692Z,9.17
2023-05-02T17:10:57.523Z,9.15
2023-05-02T17:13:24.243Z,9.03
2023-05-02T17:15:53.898Z,9.17
2023-05-02T17:18:20.719Z,8.97
2023-05-02T17:20:47.432Z,9.04
2023-05-02T17:23:14.713Z,9.02
2023-05-02T17:25:41.788Z,8.89
2023-05-02T17:28:08.564Z,9.00
2023-05-02T17:30:35.644Z,8.78
2023-05-02T17:33:02.801Z,8.89
2023-05-02T17:35:29.682Z,8.79
2023-05-02T17:37:56.381Z,8.68
2023-05-02T17:40:23.225Z,8.76
2023-05-02T17:42:49.847Z,8.51
2023-05-02T17:45:16.810Z,8.66
2023-05-02T17:47:44.734Z,8.53
2023-05-02T17:50:11.727Z,8.45
2023-05-02T17:52:38.940Z,8.52
2023-05-02T17:55:06.777Z,8.10
2023-05-02T17:57:33.430Z,8.18
2023-05-02T18:00:00.490Z,8.05
2023-05-02T18:02:27.672Z,8.06
2023-05-02T18:04:54.884Z,8.11
2023-05-02T18:07:24.613Z,7.74
2023-05-02T18:09:54.033Z,7.91
2023-05-02T18:12:21.788Z,7.77
2023-05-02T18:14:49.272Z,7.66
2023-05-02T18:17:20.291Z,7.83
2023-05-02T18:19:49.331Z,7.52
2023-05-02T18:22:19.857Z,7.60
2023-05-02T18:24:48.038Z,7.56
2023-05-02T18:27:14.950Z,7.34
2023-05-02T18:29:41.605Z,7.53
2023-05-02T18:32:08.808Z,7.27
2023-05-02T18:34:37.866Z,7.11
2023-05-02T18:37:06.757Z,7.27
2023-05-02T18:39:34.267Z,7.25
2023-05-02T18:42:03.139Z,7.06
2023-05-02T18:44:31.094Z,7.23
2023-05-02T18:46:57.995Z,6.96
2023-05-02T18:49:26.215Z,6.85
2023-05-02T18:51:57.138Z,7.05
2023-05-02T18:54:24.392Z,6.81
2023-05-02T18:56:51.026Z,6.84
2023-05-02T18:59:19.131Z,6.78
2023-05-02T19:01:47.547Z,6.49
2023-05-02T19:04:14.696Z,6.58
2023-05-02T19:06:42.013Z,6.56
2023-05-02T19:09:09.866Z,6.33
2023-05-02T19:11:36.752Z,6.50
2023-05-02T19:14:04.059Z,6.20
2023-05-02T19:16:31.451Z,6.00
2023-05-02T19:18:58.297Z,6.15
2023-05-02T19:21:24.976Z,6.04
2023-05-02T19:23:52.753Z,5.81
2023-05-02T19:26:19.616Z,6.01
2023-05-02T19:28:46.365Z,5.82
2023-05-02T19:31:16.138Z,5.89
2023-05-02T19:33:52.363Z,5.92
2023-05-02T19:36:20.244Z,5.66
2023-05-02T19:38:51.989Z,5.74
2023-05-02T19:41:18.754Z,5.54
2023-05-02T19:43:45.731Z,5.14
2023-05-02T19:46:14.346Z,4.80
2023-05-02T19:48:41.065Z,4.84
2023-05-02T19:51:07.992Z,4.41
2023-05-02T19:53:37.415Z,4.44
2023-05-02T19:56:05.186Z,4.18
2023-05-02T19:58:31.989Z,3.88
2023-05-02T20:00:58.764Z,3.98
2023-05-02T20:03:26.016Z,3.99
2023-05-02T20:05:54.196Z,3.81
2023-05-02T20:08:23.368Z,3.99
2023-05-02T20:10:50.197Z,3.99
2023-05-02T20:13:16.893Z,3.92
2023-05-02T20:15:43.830Z,3.99
2023-05-02T20:18:10.474Z,3.64
2023-05-02T20:20:37.138Z,3.62
2023-05-02T20:23:03.720Z,3.82
2023-05-02T20:25:30.466Z,3.62
2023-05-02T20:27:57.254Z,3.21
2023-05-02T20:30:25.293Z,3.33
2023-05-02T20:32:52.304Z,2.93
2023-05-02T20:35:19.324Z,2.79
2023-05-02T20:37:47.917Z,2.85
2023-05-02T20:40:14.686Z,2.45
2023-05-02T20:42:42.395Z,2.41
2023-05-02T20:45:13.144Z,2.66
2023-05-02T20:47:39.843Z,2.37
2023-05-02T20:50:09.367Z,2.27
2023-05-02T20:52:37.788Z,2.38
2023-05-02T20:55:04.869Z,2.12
2023-05-02T20:57:31.516Z,2.00
2023-05-02T21:00:01.092Z,2.23
2023-05-02T21:02:28.211Z,1.94
2023-05-02T21:04:55.749Z,1.84
2023-05-02T21:07:22.407Z,1.86
2023-05-02T21:09:49.764Z,1.41
2023-05-02T21:12:16.457Z,1.35
2023-05-02T21:14:44.137Z,1.54
2023-05-02T21:17:10.823Z,1.45
2023-05-02T21:19:38.933Z,1.40
2023-05-02T21:22:05.556Z,1.45
2023-05-02T21:24:33.360Z,1.17
2023-05-02T21:27:00.034Z,1.16
2023-05-02T21:29:26.673Z,1.34
2023-05-02T21:31:54.810Z,1.12
2023-05-02T21:34:21.708Z,0.88
2023-05-02T21:36:48.308Z,1.06
2023-05-02T21:39:16.354Z,1.13
2023-05-02T21:41:43.042Z,0.90
2023-05-02T21:44:11.361Z,0.88
2023-05-02T21:46:38.017Z,1.01
2023-05-02T21:49:04.629Z,0.83
2023-05-02T21:51:32.606Z,0.66
2023-05-02T21:54:00.142Z,0.71
2023-05-02T21:56:27.960Z,0.70
2023-05-02T21:58:54.571Z,0.43
2023-05-02T22:01:21.296Z,0.43
2023-05-02T22:03:48.361Z,0.54
2023-05-02T22:06:15.193Z,0.40
2023-05-02T22:08:41.840Z,0.31
2023-05-02T22:11:10.269Z,0.41
2023-05-02T22:13:37.265Z,0.53
2023-05-02T22:16:05.277Z,0.46
2023-05-02T22:18:31.901Z,0.57
2023-05-02T22:20:58.661Z,0.54
2023-05-02T22:23:26.527Z,0.28
2023-05-02T22:25:53.166Z,0.18
2023-05-02T22:28:19.826Z,0.33
2023-05-02T22:30:46.422Z,0.27
2023-05-02T22:33:14.147Z,0.17
2023-05-02T22:35:41.099Z,0.26
2023-05-02T22:38:10.990Z,0.46
2023-05-02T22:40:38.761Z,0.10
2023-05-02T22:43:05.389Z,0.11
2023-05-02T22:45:33.143Z,0.37
2023-05-02T22:48:01.039Z,0.28
2023-05-02T22:50:28.358Z,0.28
2023-05-02T22:52:58.721Z,0.38
2023-05-02T22:55:26.025Z,0.65
2023-05-02T22:57:52.752Z,0.60
2023-05-02T23:00:19.523Z,0.85
2023-05-02T23:02:46.633Z,1.17
2023-05-02T23:05:14.342Z,1.51
2023-05-02T23:07:41.050Z,1.74
2023-05-02T23:10:08.580Z,2.04
2023-05-02T23:12:35.174Z,2.11
2023-05-02T23:15:01.890Z,2.16
2023-05-02T23:17:28.663Z,2.36
2023-05-02T23:19:55.288Z,2.41
2023-05-02T23:22:21.909Z,2.47
2023-05-02T23:24:49.681Z,2.65
2023-05-02T23:27:16.380Z,2.66
2023-05-02T23:29:43.011Z,2.48
2023-05-02T23:32:09.753Z,2.67
2023-05-02T23:34:36.749Z,2.71
2023-05-02T23:37:06.234Z,2.64
2023-05-02T23:39:33.476Z,2.75
2023-05-02T23:42:01.845Z,2.82
2023-05-02T23:44:28.434Z,2.66
2023-05-02T23:46:55.033Z,2.76
2023-05-02T23:49:21.871Z,2.80
2023-05-02T23:51:48.465Z,2.66
2023-05-02T23:54:16.992Z,2.70
2023-05-02T23:56:43.874Z,2.91
2023-05-02T23:59:11.323Z,2.74
